sensor_id;sensor_type;location;lat;lon;timestamp;P1;durP1;ratioP1;P2;durP2;ratioP2
29724;SDS011;16636;48.394;15.468;2022-12-29T00:01:34;7.38;;;2.45;;
29724;SDS011;16636;48.394;15.468;2022-12-29T00:04:01;6.95;;;2.85;;
29724;SDS011;16636;48.394;15.468;2022-12-29T00:06:27;5.45;;;2.28;;
29724;SDS011;16636;48.394;15.468;2022-12-29T00:08:54;4.35;;;1.83;;
29724;SDS011;16636;48.394;15.468;2022-12-29T00:11:21;3.05;;;2.13;;
29724;SDS011;16636;48.394;15.468;2022-12-29T00:13:49;5.88;;;2.20;;
29724;SDS011;16636;48.394;15.468;2022-12-29T00:16:34;3.80;;;2.33;;
29724;SDS011;16636;48.394;15.468;2022-12-29T00:19:02;6.20;;;2.65;;
29724;SDS011;16636;48.394;15.468;2022-12-29T00:21:28;5.35;;;2.90;;
29724;SDS011;16636;48.394;15.468;2022-12-29T00:24:19;6.45;;;2.55;;
29724;SDS011;16636;48.394;15.468;2022-12-29T00:29:50;4.65;;;2.53;;
29724;SDS011;16636;48.394;15.468;2022-12-29T00:32:35;4.28;;;2.17;;
29724;SDS011;16636;48.394;15.468;2022-12-29T00:35:39;3.88;;;2.08;;
29724;SDS011;16636;48.394;15.468;2022-12-29T00:38:14;6.88;;;2.92;;
29724;SDS011;16636;48.394;15.468;2022-12-29T00:40:58;5.68;;;2.72;;
29724;SDS011;16636;48.394;15.468;2022-12-29T00:43:43;4.65;;;2.90;;
29724;SDS011;16636;48.394;15.468;2022-12-29T00:46:27;5.28;;;2.45;;
29724;SDS011;16636;48.394;15.468;2022-12-29T00:48:54;7.10;;;2.83;;
29724;SDS011;16636;48.394;15.468;2022-12-29T00:51:38;3.95;;;2.45;;
29724;SDS011;16636;48.394;15.468;2022-12-29T00:54:04;4.78;;;2.38;;
29724;SDS011;16636;48.394;15.468;2022-12-29T00:56:30;4.35;;;2.85;;
29724;SDS011;16636;48.394;15.468;2022-12-29T00:59:03;4.55;;;2.45;;
29724;SDS011;16636;48.394;15.468;2022-12-29T01:01:31;6.72;;;2.38;;
29724;SDS011;16636;48.394;15.468;2022-12-29T01:03:59;3.55;;;1.90;;
29724;SDS011;16636;48.394;15.468;2022-12-29T01:06:25;5.40;;;2.40;;
29724;SDS011;16636;48.394;15.468;2022-12-29T01:08:51;3.70;;;2.20;;
29724;SDS011;16636;48.394;15.468;2022-12-29T01:11:36;4.53;;;1.75;;
29724;SDS011;16636;48.394;15.468;2022-12-29T01:14:05;5.38;;;2.40;;
29724;SDS011;16636;48.394;15.468;2022-12-29T01:16:32;2.90;;;1.88;;
29724;SDS011;16636;48.394;15.468;2022-12-29T01:18:58;6.68;;;2.28;;
29724;SDS011;16636;48.394;15.468;2022-12-29T01:21:26;10.00;;;2.20;;
29724;SDS011;16636;48.394;15.468;2022-12-29T01:23:52;4.95;;;2.58;;
29724;SDS011;16636;48.394;15.468;2022-12-29T01:26:19;6.20;;;2.10;;
29724;SDS011;16636;48.394;15.468;2022-12-29T01:28:45;4.13;;;2.10;;
29724;SDS011;16636;48.394;15.468;2022-12-29T01:31:13;3.70;;;2.38;;
29724;SDS011;16636;48.394;15.468;2022-12-29T01:33:40;4.57;;;1.98;;
29724;SDS011;16636;48.394;15.468;2022-12-29T01:36:08;5.10;;;2.40;;
29724;SDS011;16636;48.394;15.468;2022-12-29T01:38:37;3.55;;;1.88;;
29724;SDS011;16636;48.394;15.468;2022-12-29T01:41:04;7.25;;;2.35;;
29724;SDS011;16636;48.394;15.468;2022-12-29T01:43:45;6.85;;;2.28;;
29724;SDS011;16636;48.394;15.468;2022-12-29T01:46:20;2.45;;;1.80;;
29724;SDS011;16636;48.394;15.468;2022-12-29T01:49:20;3.75;;;2.08;;
29724;SDS011;16636;48.394;15.468;2022-12-29T01:51:50;5.93;;;2.15;;
29724;SDS011;16636;48.394;15.468;2022-12-29T01:54:23;4.35;;;2.42;;
29724;SDS011;16636;48.394;15.468;2022-12-29T01:56:53;6.57;;;2.75;;
29724;SDS011;16636;48.394;15.468;2022-12-29T01:59:24;3.95;;;2.50;;
29724;SDS011;16636;48.394;15.468;2022-12-29T02:01:55;3.90;;;2.50;;
29724;SDS011;16636;48.394;15.468;2022-12-29T02:04:22;5.53;;;2.25;;
29724;SDS011;16636;48.394;15.468;2022-12-29T02:06:53;6.07;;;2.88;;
29724;SDS011;16636;48.394;15.468;2022-12-29T02:09:23;6.60;;;2.67;;
29724;SDS011;16636;48.394;15.468;2022-12-29T02:11:50;4.35;;;2.17;;
29724;SDS011;16636;48.394;15.468;2022-12-29T02:14:17;2.95;;;1.65;;
29724;SDS011;16636;48.394;15.468;2022-12-29T02:22:21;4.60;;;2.53;;
29724;SDS011;16636;48.394;15.468;2022-12-29T02:33:13;8.70;;;2.53;;
29724;SDS011;16636;48.394;15.468;2022-12-29T02:36:24;4.10;;;2.08;;
29724;SDS011;16636;48.394;15.468;2022-12-29T02:39:21;5.80;;;2.93;;
29724;SDS011;16636;48.394;15.468;2022-12-29T02:47:57;6.30;;;2.90;;
29724;SDS011;16636;48.394;15.468;2022-12-29T02:50:37;6.05;;;2.70;;
29724;SDS011;16636;48.394;15.468;2022-12-29T02:53:14;5.72;;;2.85;;
29724;SDS011;16636;48.394;15.468;2022-12-29T02:56:02;5.03;;;2.47;;
29724;SDS011;16636;48.394;15.468;2022-12-29T02:58:29;6.53;;;3.08;;
29724;SDS011;16636;48.394;15.468;2022-12-29T03:01:01;6.82;;;2.97;;
29724;SDS011;16636;48.394;15.468;2022-12-29T03:03:58;5.78;;;3.35;;
29724;SDS011;16636;48.394;15.468;2022-12-29T03:14:47;4.07;;;2.47;;
29724;SDS011;16636;48.394;15.468;2022-12-29T03:17:51;4.57;;;2.10;;
29724;SDS011;16636;48.394;15.468;2022-12-29T03:20:36;6.10;;;2.75;;
29724;SDS011;16636;48.394;15.468;2022-12-29T03:23:07;4.47;;;2.53;;
29724;SDS011;16636;48.394;15.468;2022-12-29T03:25:37;4.20;;;2.08;;
29724;SDS011;16636;48.394;15.468;2022-12-29T03:28:11;5.53;;;1.75;;
29724;SDS011;16636;48.394;15.468;2022-12-29T03:30:44;3.22;;;1.67;;
29724;SDS011;16636;48.394;15.468;2022-12-29T03:33:16;3.40;;;1.90;;
29724;SDS011;16636;48.394;15.468;2022-12-29T03:35:47;3.72;;;1.48;;
29724;SDS011;16636;48.394;15.468;2022-12-29T03:38:21;5.20;;;2.00;;
29724;SDS011;16636;48.394;15.468;2022-12-29T03:40:55;2.88;;;1.67;;
29724;SDS011;16636;48.394;15.468;2022-12-29T03:43:26;3.38;;;2.05;;
29724;SDS011;16636;48.394;15.468;2022-12-29T03:45:54;4.68;;;1.67;;
29724;SDS011;16636;48.394;15.468;2022-12-29T03:48:20;2.30;;;1.52;;
29724;SDS011;16636;48.394;15.468;2022-12-29T03:50:48;3.17;;;1.50;;
29724;SDS011;16636;48.394;15.468;2022-12-29T03:53:14;4.43;;;1.67;;
29724;SDS011;16636;48.394;15.468;2022-12-29T03:55:41;3.35;;;1.67;;
29724;SDS011;16636;48.394;15.468;2022-12-29T03:58:09;4.97;;;2.13;;
29724;SDS011;16636;48.394;15.468;2022-12-29T04:00:53;2.08;;;1.50;;
29724;SDS011;16636;48.394;15.468;2022-12-29T04:03:20;3.50;;;1.70;;
29724;SDS011;16636;48.394;15.468;2022-12-29T04:05:46;3.33;;;1.65;;
29724;SDS011;16636;48.394;15.468;2022-12-29T04:08:12;3.08;;;1.70;;
29724;SDS011;16636;48.394;15.468;2022-12-29T04:10:38;4.55;;;2.42;;
29724;SDS011;16636;48.394;15.468;2022-12-29T04:13:05;3.80;;;2.55;;
29724;SDS011;16636;48.394;15.468;2022-12-29T04:15:31;2.88;;;2.17;;
29724;SDS011;16636;48.394;15.468;2022-12-29T04:17:57;4.78;;;2.03;;
29724;SDS011;16636;48.394;15.468;2022-12-29T04:20:24;2.63;;;1.70;;
29724;SDS011;16636;48.394;15.468;2022-12-29T04:23:08;2.65;;;1.80;;
29724;SDS011;16636;48.394;15.468;2022-12-29T04:25:36;2.97;;;1.83;;
29724;SDS011;16636;48.394;15.468;2022-12-29T04:28:02;3.78;;;2.30;;
29724;SDS011;16636;48.394;15.468;2022-12-29T04:30:37;3.88;;;1.85;;
29724;SDS011;16636;48.394;15.468;2022-12-29T04:33:22;2.05;;;1.58;;
29724;SDS011;16636;48.394;15.468;2022-12-29T04:35:48;4.72;;;2.38;;
29724;SDS011;16636;48.394;15.468;2022-12-29T04:38:15;3.13;;;1.80;;
29724;SDS011;16636;48.394;15.468;2022-12-29T04:40:42;4.88;;;2.35;;
29724;SDS011;16636;48.394;15.468;2022-12-29T04:43:10;5.32;;;2.28;;
29724;SDS011;16636;48.394;15.468;2022-12-29T04:45:55;4.65;;;2.30;;
29724;SDS011;16636;48.394;15.468;2022-12-29T04:48:27;5.30;;;2.58;;
29724;SDS011;16636;48.394;15.468;2022-12-29T04:51:11;8.30;;;3.20;;
29724;SDS011;16636;48.394;15.468;2022-12-29T04:53:38;7.05;;;2.67;;
29724;SDS011;16636;48.394;15.468;2022-12-29T04:56:05;5.88;;;3.60;;
29724;SDS011;16636;48.394;15.468;2022-12-29T04:58:31;5.90;;;2.72;;
29724;SDS011;16636;48.394;15.468;2022-12-29T05:00:58;6.25;;;2.90;;
29724;SDS011;16636;48.394;15.468;2022-12-29T05:03:28;8.07;;;3.22;;
29724;SDS011;16636;48.394;15.468;2022-12-29T05:05:54;13.25;;;4.15;;
29724;SDS011;16636;48.394;15.468;2022-12-29T05:08:21;11.68;;;3.78;;
29724;SDS011;16636;48.394;15.468;2022-12-29T05:10:49;5.28;;;3.47;;
29724;SDS011;16636;48.394;15.468;2022-12-29T05:13:16;7.68;;;4.05;;
29724;SDS011;16636;48.394;15.468;2022-12-29T05:15:50;11.98;;;4.57;;
29724;SDS011;16636;48.394;15.468;2022-12-29T05:18:17;7.07;;;3.70;;
29724;SDS011;16636;48.394;15.468;2022-12-29T05:20:44;13.07;;;5.50;;
29724;SDS011;16636;48.394;15.468;2022-12-29T05:23:11;9.68;;;4.47;;
29724;SDS011;16636;48.394;15.468;2022-12-29T05:25:39;15.77;;;4.88;;
29724;SDS011;16636;48.394;15.468;2022-12-29T05:28:15;9.30;;;4.85;;
29724;SDS011;16636;48.394;15.468;2022-12-29T05:30:49;11.52;;;4.88;;
29724;SDS011;16636;48.394;15.468;2022-12-29T05:33:17;13.57;;;5.07;;
29724;SDS011;16636;48.394;15.468;2022-12-29T05:35:44;8.70;;;4.82;;
29724;SDS011;16636;48.394;15.468;2022-12-29T05:38:12;11.18;;;5.22;;
29724;SDS011;16636;48.394;15.468;2022-12-29T05:40:39;15.90;;;5.05;;
29724;SDS011;16636;48.394;15.468;2022-12-29T05:43:14;13.05;;;5.78;;
29724;SDS011;16636;48.394;15.468;2022-12-29T05:46:06;12.82;;;5.28;;
29724;SDS011;16636;48.394;15.468;2022-12-29T05:48:45;11.93;;;5.20;;
29724;SDS011;16636;48.394;15.468;2022-12-29T05:51:24;11.35;;;5.68;;
29724;SDS011;16636;48.394;15.468;2022-12-29T05:53:55;8.75;;;5.07;;
29724;SDS011;16636;48.394;15.468;2022-12-29T05:56:22;10.52;;;4.97;;
29724;SDS011;16636;48.394;15.468;2022-12-29T05:58:55;11.63;;;4.65;;
29724;SDS011;16636;48.394;15.468;2022-12-29T06:01:22;13.15;;;6.05;;
29724;SDS011;16636;48.394;15.468;2022-12-29T06:03:48;9.70;;;5.38;;
29724;SDS011;16636;48.394;15.468;2022-12-29T06:06:16;11.77;;;5.40;;
29724;SDS011;16636;48.394;15.468;2022-12-29T06:08:43;8.65;;;4.88;;
29724;SDS011;16636;48.394;15.468;2022-12-29T06:11:09;9.63;;;4.88;;
29724;SDS011;16636;48.394;15.468;2022-12-29T06:13:35;10.60;;;5.95;;
29724;SDS011;16636;48.394;15.468;2022-12-29T06:16:01;15.55;;;6.70;;
29724;SDS011;16636;48.394;15.468;2022-12-29T06:18:29;12.70;;;6.38;;
29724;SDS011;16636;48.394;15.468;2022-12-29T06:21:00;12.45;;;6.18;;
29724;SDS011;16636;48.394;15.468;2022-12-29T06:23:27;10.65;;;5.32;;
29724;SDS011;16636;48.394;15.468;2022-12-29T06:25:53;13.93;;;5.68;;
29724;SDS011;16636;48.394;15.468;2022-12-29T06:28:21;18.20;;;6.43;;
29724;SDS011;16636;48.394;15.468;2022-12-29T06:30:54;8.20;;;4.65;;
29724;SDS011;16636;48.394;15.468;2022-12-29T06:33:29;14.07;;;6.80;;
29724;SDS011;16636;48.394;15.468;2022-12-29T06:35:58;10.23;;;5.03;;
29724;SDS011;16636;48.394;15.468;2022-12-29T06:38:27;13.27;;;5.65;;
29724;SDS011;16636;48.394;15.468;2022-12-29T06:40:54;15.25;;;6.57;;
29724;SDS011;16636;48.394;15.468;2022-12-29T06:43:38;17.50;;;6.57;;
29724;SDS011;16636;48.394;15.468;2022-12-29T06:46:18;13.00;;;7.43;;
29724;SDS011;16636;48.394;15.468;2022-12-29T06:48:44;16.00;;;9.07;;
29724;SDS011;16636;48.394;15.468;2022-12-29T06:51:10;27.50;;;11.25;;
29724;SDS011;16636;48.394;15.468;2022-12-29T06:53:36;14.32;;;7.03;;
29724;SDS011;16636;48.394;15.468;2022-12-29T06:56:02;14.10;;;7.07;;
29724;SDS011;16636;48.394;15.468;2022-12-29T06:58:28;20.92;;;9.85;;
29724;SDS011;16636;48.394;15.468;2022-12-29T07:00:54;13.27;;;7.30;;
29724;SDS011;16636;48.394;15.468;2022-12-29T07:03:20;18.05;;;6.95;;
29724;SDS011;16636;48.394;15.468;2022-12-29T07:05:46;13.55;;;6.72;;
29724;SDS011;16636;48.394;15.468;2022-12-29T07:08:12;12.13;;;6.20;;
29724;SDS011;16636;48.394;15.468;2022-12-29T07:10:39;20.80;;;9.30;;
29724;SDS011;16636;48.394;15.468;2022-12-29T07:13:05;16.27;;;7.03;;
29724;SDS011;16636;48.394;15.468;2022-12-29T07:15:33;16.98;;;7.10;;
29724;SDS011;16636;48.394;15.468;2022-12-29T07:18:00;18.33;;;8.00;;
29724;SDS011;16636;48.394;15.468;2022-12-29T07:20:26;12.07;;;6.63;;
29724;SDS011;16636;48.394;15.468;2022-12-29T07:22:52;21.83;;;8.93;;
29724;SDS011;16636;48.394;15.468;2022-12-29T07:25:18;19.05;;;8.20;;
29724;SDS011;16636;48.394;15.468;2022-12-29T07:27:44;14.15;;;7.10;;
29724;SDS011;16636;48.394;15.468;2022-12-29T07:30:10;18.35;;;7.65;;
29724;SDS011;16636;48.394;15.468;2022-12-29T07:32:37;11.27;;;5.65;;
29724;SDS011;16636;48.394;15.468;2022-12-29T07:35:03;12.98;;;6.85;;
29724;SDS011;16636;48.394;15.468;2022-12-29T07:37:29;12.93;;;5.95;;
29724;SDS011;16636;48.394;15.468;2022-12-29T07:39:55;11.88;;;5.35;;
29724;SDS011;16636;48.394;15.468;2022-12-29T07:42:21;10.20;;;4.82;;
29724;SDS011;16636;48.394;15.468;2022-12-29T07:44:50;13.48;;;6.32;;
29724;SDS011;16636;48.394;15.468;2022-12-29T07:47:32;9.13;;;5.38;;
29724;SDS011;16636;48.394;15.468;2022-12-29T07:49:58;20.00;;;8.15;;
29724;SDS011;16636;48.394;15.468;2022-12-29T07:52:24;16.00;;;8.38;;
29724;SDS011;16636;48.394;15.468;2022-12-29T07:54:50;13.40;;;6.18;;
29724;SDS011;16636;48.394;15.468;2022-12-29T07:57:16;13.48;;;6.53;;
29724;SDS011;16636;48.394;15.468;2022-12-29T07:59:42;12.13;;;6.45;;
29724;SDS011;16636;48.394;15.468;2022-12-29T08:02:12;9.15;;;5.50;;
29724;SDS011;16636;48.394;15.468;2022-12-29T08:04:38;11.65;;;5.95;;
29724;SDS011;16636;48.394;15.468;2022-12-29T08:07:04;9.32;;;5.18;;
29724;SDS011;16636;48.394;15.468;2022-12-29T08:09:30;11.57;;;4.88;;
29724;SDS011;16636;48.394;15.468;2022-12-29T08:11:56;12.40;;;6.07;;
29724;SDS011;16636;48.394;15.468;2022-12-29T08:14:22;15.20;;;7.20;;
29724;SDS011;16636;48.394;15.468;2022-12-29T08:16:48;13.90;;;6.80;;
29724;SDS011;16636;48.394;15.468;2022-12-29T08:19:14;19.08;;;8.20;;
29724;SDS011;16636;48.394;15.468;2022-12-29T08:21:40;12.13;;;7.25;;
29724;SDS011;16636;48.394;15.468;2022-12-29T08:24:06;11.80;;;6.28;;
29724;SDS011;16636;48.394;15.468;2022-12-29T08:26:33;14.07;;;6.47;;
29724;SDS011;16636;48.394;15.468;2022-12-29T08:28:59;15.52;;;6.00;;
29724;SDS011;16636;48.394;15.468;2022-12-29T08:31:26;11.88;;;6.22;;
29724;SDS011;16636;48.394;15.468;2022-12-29T08:33:55;14.50;;;6.78;;
29724;SDS011;16636;48.394;15.468;2022-12-29T08:36:21;16.23;;;7.15;;
29724;SDS011;16636;48.394;15.468;2022-12-29T08:38:46;21.38;;;8.02;;
29724;SDS011;16636;48.394;15.468;2022-12-29T08:41:13;13.18;;;6.57;;
29724;SDS011;16636;48.394;15.468;2022-12-29T08:43:39;9.38;;;5.75;;
29724;SDS011;16636;48.394;15.468;2022-12-29T08:46:05;12.80;;;5.95;;
29724;SDS011;16636;48.394;15.468;2022-12-29T08:48:31;12.88;;;6.32;;
29724;SDS011;16636;48.394;15.468;2022-12-29T08:50:57;12.55;;;6.55;;
29724;SDS011;16636;48.394;15.468;2022-12-29T08:53:23;17.38;;;6.25;;
29724;SDS011;16636;48.394;15.468;2022-12-29T08:55:54;10.70;;;5.25;;
29724;SDS011;16636;48.394;15.468;2022-12-29T08:58:22;19.43;;;8.00;;
29724;SDS011;16636;48.394;15.468;2022-12-29T09:00:51;34.67;;;13.90;;
29724;SDS011;16636;48.394;15.468;2022-12-29T09:03:18;19.58;;;7.82;;
29724;SDS011;16636;48.394;15.468;2022-12-29T09:05:47;17.25;;;7.97;;
29724;SDS011;16636;48.394;15.468;2022-12-29T09:08:31;16.80;;;7.95;;
29724;SDS011;16636;48.394;15.468;2022-12-29T09:17:37;34.75;;;14.30;;
29724;SDS011;16636;48.394;15.468;2022-12-29T09:20:06;102.43;;;27.65;;
29724;SDS011;16636;48.394;15.468;2022-12-29T09:22:35;74.60;;;23.88;;
29724;SDS011;16636;48.394;15.468;2022-12-29T09:25:08;46.90;;;16.92;;
29724;SDS011;16636;48.394;15.468;2022-12-29T09:28:01;27.15;;;10.48;;
29724;SDS011;16636;48.394;15.468;2022-12-29T09:30:32;27.80;;;11.65;;
29724;SDS011;16636;48.394;15.468;2022-12-29T09:32:58;32.05;;;11.52;;
29724;SDS011;16636;48.394;15.468;2022-12-29T09:35:24;35.33;;;13.68;;
29724;SDS011;16636;48.394;15.468;2022-12-29T09:37:51;36.95;;;13.70;;
29724;SDS011;16636;48.394;15.468;2022-12-29T09:40:22;28.35;;;13.82;;
29724;SDS011;16636;48.394;15.468;2022-12-29T09:43:20;38.53;;;17.42;;
29724;SDS011;16636;48.394;15.468;2022-12-29T09:48:33;25.75;;;12.52;;
29724;SDS011;16636;48.394;15.468;2022-12-29T09:51:05;24.67;;;11.50;;
29724;SDS011;16636;48.394;15.468;2022-12-29T09:53:41;25.83;;;12.15;;
29724;SDS011;16636;48.394;15.468;2022-12-29T09:56:15;26.92;;;8.20;;
29724;SDS011;16636;48.394;15.468;2022-12-29T09:58:46;23.95;;;11.77;;
29724;SDS011;16636;48.394;15.468;2022-12-29T10:04:01;27.35;;;14.23;;
29724;SDS011;16636;48.394;15.468;2022-12-29T10:06:42;28.38;;;10.93;;
29724;SDS011;16636;48.394;15.468;2022-12-29T10:12:15;28.90;;;12.52;;
29724;SDS011;16636;48.394;15.468;2022-12-29T10:20:57;27.65;;;12.63;;
29724;SDS011;16636;48.394;15.468;2022-12-29T10:23:40;34.17;;;14.00;;
29724;SDS011;16636;48.394;15.468;2022-12-29T10:26:13;34.75;;;14.60;;
29724;SDS011;16636;48.394;15.468;2022-12-29T10:31:18;35.67;;;16.15;;
29724;SDS011;16636;48.394;15.468;2022-12-29T10:33:56;34.00;;;13.43;;
29724;SDS011;16636;48.394;15.468;2022-12-29T10:36:32;35.38;;;12.27;;
29724;SDS011;16636;48.394;15.468;2022-12-29T10:39:37;30.23;;;13.57;;
29724;SDS011;16636;48.394;15.468;2022-12-29T10:45:02;31.65;;;13.93;;
29724;SDS011;16636;48.394;15.468;2022-12-29T10:47:32;25.70;;;12.88;;
29724;SDS011;16636;48.394;15.468;2022-12-29T10:50:04;29.15;;;13.60;;
29724;SDS011;16636;48.394;15.468;2022-12-29T10:52:31;33.08;;;11.77;;
29724;SDS011;16636;48.394;15.468;2022-12-29T10:55:00;28.65;;;12.65;;
29724;SDS011;16636;48.394;15.468;2022-12-29T10:57:34;26.63;;;12.82;;
29724;SDS011;16636;48.394;15.468;2022-12-29T11:00:19;27.27;;;12.13;;
29724;SDS011;16636;48.394;15.468;2022-12-29T11:05:46;49.80;;;20.70;;
29724;SDS011;16636;48.394;15.468;2022-12-29T11:08:15;100.18;;;33.70;;
29724;SDS011;16636;48.394;15.468;2022-12-29T11:10:45;49.03;;;20.85;;
29724;SDS011;16636;48.394;15.468;2022-12-29T11:15:44;35.83;;;15.07;;
29724;SDS011;16636;48.394;15.468;2022-12-29T11:20:59;40.10;;;16.95;;
29724;SDS011;16636;48.394;15.468;2022-12-29T11:23:35;31.90;;;13.80;;
29724;SDS011;16636;48.394;15.468;2022-12-29T11:26:22;30.52;;;14.35;;
29724;SDS011;16636;48.394;15.468;2022-12-29T11:29:09;40.10;;;14.25;;
29724;SDS011;16636;48.394;15.468;2022-12-29T11:31:56;26.17;;;13.60;;
29724;SDS011;16636;48.394;15.468;2022-12-29T11:34:31;33.90;;;14.35;;
29724;SDS011;16636;48.394;15.468;2022-12-29T11:37:02;32.40;;;16.33;;
29724;SDS011;16636;48.394;15.468;2022-12-29T11:42:16;32.47;;;14.30;;
29724;SDS011;16636;48.394;15.468;2022-12-29T11:44:48;27.27;;;14.25;;
29724;SDS011;16636;48.394;15.468;2022-12-29T11:47:27;35.42;;;14.02;;
29724;SDS011;16636;48.394;15.468;2022-12-29T11:49:57;32.22;;;14.73;;
29724;SDS011;16636;48.394;15.468;2022-12-29T11:52:27;29.30;;;15.68;;
29724;SDS011;16636;48.394;15.468;2022-12-29T11:54:58;29.98;;;15.50;;
29724;SDS011;16636;48.394;15.468;2022-12-29T11:57:26;38.88;;;16.23;;
29724;SDS011;16636;48.394;15.468;2022-12-29T11:59:54;32.65;;;15.50;;
29724;SDS011;16636;48.394;15.468;2022-12-29T12:02:30;32.25;;;14.38;;
29724;SDS011;16636;48.394;15.468;2022-12-29T12:05:15;31.98;;;15.70;;
29724;SDS011;16636;48.394;15.468;2022-12-29T12:08:14;26.17;;;15.27;;
29724;SDS011;16636;48.394;15.468;2022-12-29T12:10:58;34.95;;;15.25;;
29724;SDS011;16636;48.394;15.468;2022-12-29T12:17:22;32.38;;;16.08;;
29724;SDS011;16636;48.394;15.468;2022-12-29T12:20:05;32.00;;;14.00;;
29724;SDS011;16636;48.394;15.468;2022-12-29T12:25:38;36.00;;;15.68;;
29724;SDS011;16636;48.394;15.468;2022-12-29T12:28:54;37.10;;;14.45;;
29724;SDS011;16636;48.394;15.468;2022-12-29T12:31:35;30.70;;;13.93;;
29724;SDS011;16636;48.394;15.468;2022-12-29T12:34:11;31.23;;;13.60;;
29724;SDS011;16636;48.394;15.468;2022-12-29T12:36:49;41.92;;;18.15;;
29724;SDS011;16636;48.394;15.468;2022-12-29T12:47:39;29.00;;;14.35;;
29724;SDS011;16636;48.394;15.468;2022-12-29T12:53:35;27.55;;;14.18;;
29724;SDS011;16636;48.394;15.468;2022-12-29T12:56:19;28.85;;;14.52;;
29724;SDS011;16636;48.394;15.468;2022-12-29T12:59:13;23.48;;;10.07;;
29724;SDS011;16636;48.394;15.468;2022-12-29T13:08:19;32.83;;;14.32;;
29724;SDS011;16636;48.394;15.468;2022-12-29T13:11:29;27.27;;;13.15;;
29724;SDS011;16636;48.394;15.468;2022-12-29T13:19:40;35.03;;;15.65;;
29724;SDS011;16636;48.394;15.468;2022-12-29T13:22:16;30.77;;;16.35;;
29724;SDS011;16636;48.394;15.468;2022-12-29T13:30:30;27.88;;;14.50;;
29724;SDS011;16636;48.394;15.468;2022-12-29T13:38:43;33.30;;;14.20;;
29724;SDS011;16636;48.394;15.468;2022-12-29T13:41:25;29.75;;;14.85;;
29724;SDS011;16636;48.394;15.468;2022-12-29T13:44:00;29.40;;;13.55;;
29724;SDS011;16636;48.394;15.468;2022-12-29T13:46:33;34.75;;;16.10;;
29724;SDS011;16636;48.394;15.468;2022-12-29T13:49:05;29.63;;;13.85;;
29724;SDS011;16636;48.394;15.468;2022-12-29T13:51:42;29.25;;;14.52;;
29724;SDS011;16636;48.394;15.468;2022-12-29T14:00:04;29.48;;;13.43;;
29724;SDS011;16636;48.394;15.468;2022-12-29T14:05:42;24.85;;;10.73;;
29724;SDS011;16636;48.394;15.468;2022-12-29T14:08:33;27.95;;;14.57;;
29724;SDS011;16636;48.394;15.468;2022-12-29T14:11:02;31.38;;;14.90;;
29724;SDS011;16636;48.394;15.468;2022-12-29T14:13:41;32.78;;;14.25;;
29724;SDS011;16636;48.394;15.468;2022-12-29T14:16:12;28.38;;;13.77;;
29724;SDS011;16636;48.394;15.468;2022-12-29T14:18:50;31.55;;;15.30;;
29724;SDS011;16636;48.394;15.468;2022-12-29T14:21:20;30.33;;;14.85;;
29724;SDS011;16636;48.394;15.468;2022-12-29T14:23:51;34.10;;;15.50;;
29724;SDS011;16636;48.394;15.468;2022-12-29T14:28:57;32.30;;;14.15;;
29724;SDS011;16636;48.394;15.468;2022-12-29T14:32:00;35.42;;;15.75;;
29724;SDS011;16636;48.394;15.468;2022-12-29T14:34:27;30.23;;;13.93;;
29724;SDS011;16636;48.394;15.468;2022-12-29T14:36:59;24.98;;;13.50;;
29724;SDS011;16636;48.394;15.468;2022-12-29T14:52:51;39.83;;;16.63;;
29724;SDS011;16636;48.394;15.468;2022-12-29T14:55:40;38.10;;;17.02;;
29724;SDS011;16636;48.394;15.468;2022-12-29T15:01:00;36.97;;;15.90;;
29724;SDS011;16636;48.394;15.468;2022-12-29T15:03:32;40.03;;;17.75;;
29724;SDS011;16636;48.394;15.468;2022-12-29T15:06:04;31.05;;;15.27;;
29724;SDS011;16636;48.394;15.468;2022-12-29T15:08:38;40.08;;;19.23;;
29724;SDS011;16636;48.394;15.468;2022-12-29T15:11:13;31.02;;;16.20;;
29724;SDS011;16636;48.394;15.468;2022-12-29T15:13:43;40.35;;;17.98;;
29724;SDS011;16636;48.394;15.468;2022-12-29T15:19:22;35.75;;;16.80;;
29724;SDS011;16636;48.394;15.468;2022-12-29T15:21:49;38.00;;;17.80;;
29724;SDS011;16636;48.394;15.468;2022-12-29T15:24:18;44.20;;;18.75;;
29724;SDS011;16636;48.394;15.468;2022-12-29T15:26:51;37.42;;;16.88;;
29724;SDS011;16636;48.394;15.468;2022-12-29T15:29:33;39.38;;;16.77;;
29724;SDS011;16636;48.394;15.468;2022-12-29T15:32:14;39.88;;;17.90;;
29724;SDS011;16636;48.394;15.468;2022-12-29T15:34:41;38.25;;;18.30;;
29724;SDS011;16636;48.394;15.468;2022-12-29T15:37:19;36.08;;;15.98;;
29724;SDS011;16636;48.394;15.468;2022-12-29T15:39:48;34.40;;;17.05;;
29724;SDS011;16636;48.394;15.468;2022-12-29T15:45:02;39.22;;;18.67;;
29724;SDS011;16636;48.394;15.468;2022-12-29T15:47:30;37.75;;;18.20;;
29724;SDS011;16636;48.394;15.468;2022-12-29T15:49:59;45.00;;;18.92;;
29724;SDS011;16636;48.394;15.468;2022-12-29T15:52:45;45.65;;;19.45;;
29724;SDS011;16636;48.394;15.468;2022-12-29T15:55:18;47.85;;;19.52;;
29724;SDS011;16636;48.394;15.468;2022-12-29T15:57:46;42.58;;;19.38;;
29724;SDS011;16636;48.394;15.468;2022-12-29T16:02:57;44.53;;;18.60;;
29724;SDS011;16636;48.394;15.468;2022-12-29T16:05:31;39.03;;;18.10;;
29724;SDS011;16636;48.394;15.468;2022-12-29T16:08:02;36.80;;;18.52;;
29724;SDS011;16636;48.394;15.468;2022-12-29T16:10:39;52.15;;;22.10;;
29724;SDS011;16636;48.394;15.468;2022-12-29T16:13:22;48.90;;;19.63;;
29724;SDS011;16636;48.394;15.468;2022-12-29T16:15:56;60.38;;;23.15;;
29724;SDS011;16636;48.394;15.468;2022-12-29T16:18:35;64.97;;;24.52;;
29724;SDS011;16636;48.394;15.468;2022-12-29T16:21:04;49.33;;;21.02;;
29724;SDS011;16636;48.394;15.468;2022-12-29T16:23:39;46.47;;;20.15;;
29724;SDS011;16636;48.394;15.468;2022-12-29T16:26:11;55.15;;;19.65;;
29724;SDS011;16636;48.394;15.468;2022-12-29T16:28:46;40.10;;;17.20;;
29724;SDS011;16636;48.394;15.468;2022-12-29T16:31:17;41.25;;;19.13;;
29724;SDS011;16636;48.394;15.468;2022-12-29T16:33:48;41.50;;;19.63;;
29724;SDS011;16636;48.394;15.468;2022-12-29T16:38:49;32.83;;;16.88;;
29724;SDS011;16636;48.394;15.468;2022-12-29T16:41:30;43.40;;;17.70;;
29724;SDS011;16636;48.394;15.468;2022-12-29T16:46:56;45.90;;;17.60;;
29724;SDS011;16636;48.394;15.468;2022-12-29T16:51:55;38.78;;;18.33;;
29724;SDS011;16636;48.394;15.468;2022-12-29T16:54:23;73.72;;;22.80;;
29724;SDS011;16636;48.394;15.468;2022-12-29T16:56:52;56.20;;;21.85;;
29724;SDS011;16636;48.394;15.468;2022-12-29T16:59:26;41.40;;;19.80;;
29724;SDS011;16636;48.394;15.468;2022-12-29T17:01:58;49.15;;;21.20;;
29724;SDS011;16636;48.394;15.468;2022-12-29T17:04:26;42.85;;;18.60;;
29724;SDS011;16636;48.394;15.468;2022-12-29T17:06:54;41.17;;;18.25;;
29724;SDS011;16636;48.394;15.468;2022-12-29T17:09:21;36.80;;;16.05;;
29724;SDS011;16636;48.394;15.468;2022-12-29T17:11:49;39.97;;;18.10;;
29724;SDS011;16636;48.394;15.468;2022-12-29T17:17:05;44.75;;;19.20;;
29724;SDS011;16636;48.394;15.468;2022-12-29T17:19:38;41.95;;;19.27;;
29724;SDS011;16636;48.394;15.468;2022-12-29T17:22:20;36.92;;;17.67;;
29724;SDS011;16636;48.394;15.468;2022-12-29T17:24:50;43.55;;;18.60;;
29724;SDS011;16636;48.394;15.468;2022-12-29T17:27:21;36.70;;;17.38;;
29724;SDS011;16636;48.394;15.468;2022-12-29T17:29:55;59.42;;;23.80;;